Time;durP1;ratioP1;P1;durP2;ratioP2;P2;SDS_P1;SDS_P2;PMS_P1;PMS_P2;Temp;Humidity;BMP_temperature;BMP_pressure;BME280_temperature;BME280_humidity;BME280_pressure;Samples;Min_cycle;Max_cycle;Signal;HPM_P1;HPM_P2
2023/01/26 00:00:25;;;;;;;;;58.75;39.00;;;;;5.50;60.67;102079.31;5074105;27;45556;-67
2023/01/26 00:02:50;;;;;;;;;66.75;44.75;;;;;5.53;61.03;102084.81;5094452;27;45313;-65
2023/01/26 00:05:15;;;;;;;;;55.75;42.50;;;;;5.52;60.30;102076.75;5090369;27;46600;-68
2023/01/26 00:07:44;;;;;;;;;61.00;45.50;;;;;5.53;60.53;102074.22;5092455;27;45492;-67
2023/01/26 00:10:11;;;;;;;;;54.00;40.75;;;;;5.62;60.53;102073.91;5093647;27;45296;-67
2023/01/26 00:12:36;;;;;;;;;64.00;46.75;;;;;5.66;60.46;102062.72;5094941;27;45600;-67
2023/01/26 00:15:01;;;;;;;;;55.25;42.25;;;;;5.67;60.52;102060.97;5093953;27;46483;-66
2023/01/26 00:17:27;;;;;;;;;54.75;41.50;;;;;5.66;60.64;102049.47;5092036;27;45546;-66
2023/01/26 00:19:54;;;;;;;;;56.25;43.25;;;;;5.64;60.58;102051.09;5093053;27;45551;-66
2023/01/26 00:22:21;;;;;;;;;55.25;42.00;;;;;5.65;60.96;102047.63;5091292;27;45642;-66
2023/01/26 00:24:46;;;;;;;;;54.00;42.00;;;;;5.66;61.17;102044.16;5094253;27;45463;-67
2023/01/26 00:27:11;;;;;;;;;44.00;35.00;;;;;5.56;61.00;102028.47;5075384;27;45493;-67
2023/01/26 00:29:37;;;;;;;;;55.00;41.25;;;;;5.52;61.15;102016.69;5094421;27;45528;-66
2023/01/26 00:32:02;;;;;;;;;56.00;43.50;;;;;5.59;61.67;102025.97;5093793;27;45506;-67
2023/01/26 00:34:28;;;;;;;;;59.50;46.00;;;;;5.55;61.70;102018.66;5092733;27;45553;-67
2023/01/26 00:36:53;;;;;;;;;59.00;45.25;;;;;5.59;62.10;102018.03;5093670;27;45367;-67
2023/01/26 00:39:18;;;;;;;;;60.00;42.25;;;;;5.62;61.87;102009.38;5089591;27;45436;-66
2023/01/26 00:44:28;;;;;;;;;54.75;39.50;;;;;5.56;62.52;101999.28;5093471;27;45466;-66
2023/01/26 00:46:53;;;;;;;;;55.75;42.75;;;;;5.61;62.84;102000.50;5093133;27;45447;-66
2023/01/26 00:49:18;;;;;;;;;53.00;35.25;;;;;5.64;62.07;102006.03;5093909;27;45412;-67
2023/01/26 00:51:44;;;;;;;;;52.75;39.00;;;;;5.61;62.44;101997.88;5076983;27;45704;-66
2023/01/26 00:54:09;;;;;;;;;41.75;36.75;;;;;5.64;63.01;102002.44;5088278;27;46340;-66
2023/01/26 00:56:34;;;;;;;;;54.75;43.00;;;;;5.66;63.01;101991.13;5074603;27;47256;-66
2023/01/26 00:59:00;;;;;;;;;48.50;37.50;;;;;5.70;62.80;101986.94;5089968;27;45690;-66
2023/01/26 01:01:25;;;;;;;;;56.50;42.00;;;;;5.73;62.67;101976.53;5095887;27;45471;-66
2023/01/26 01:03:51;;;;;;;;;55.75;40.00;;;;;5.78;62.51;101984.81;5097227;27;45630;-67
2023/01/26 01:06:16;;;;;;;;;52.25;38.00;;;;;5.82;62.46;101973.56;5091596;27;45465;-67
2023/01/26 01:08:42;;;;;;;;;54.25;39.50;;;;;5.83;62.81;101975.41;5077551;27;45584;-66
2023/01/26 01:11:10;;;;;;;;;57.50;42.50;;;;;5.82;63.00;101969.16;5100766;27;45366;-66
2023/01/26 01:13:35;;;;;;;;;54.25;39.75;;;;;5.88;62.51;101971.31;5097100;27;46340;-66
2023/01/26 01:16:09;;;;;;;;;56.75;37.75;;;;;5.88;62.41;101969.56;5097575;27;45245;-66
2023/01/26 01:18:35;;;;;;;;;57.75;43.75;;;;;5.87;62.58;101966.81;5097462;27;45402;-66
2023/01/26 01:21:05;;;;;;;;;55.00;38.75;;;;;5.82;62.17;101962.97;5097935;27;45270;-66
2023/01/26 01:23:31;;;;;;;;;53.25;38.50;;;;;5.75;62.24;101956.34;5096598;27;47707;-66
2023/01/26 01:25:57;;;;;;;;;57.00;43.50;;;;;5.80;61.86;101961.94;5096969;27;45347;-67
2023/01/26 01:28:22;;;;;;;;;58.00;42.75;;;;;5.75;62.14;101963.38;5096562;27;45508;-66
2023/01/26 01:30:48;;;;;;;;;56.00;43.75;;;;;5.73;61.99;101968.59;5097438;27;45393;-66
2023/01/26 01:33:13;;;;;;;;;51.25;41.75;;;;;5.78;61.58;101971.53;5099964;27;45561;-67
2023/01/26 01:35:39;;;;;;;;;61.75;43.25;;;;;5.65;61.73;101968.06;5096766;27;45486;-65
2023/01/26 01:38:04;;;;;;;;;50.25;35.00;;;;;5.63;61.95;101961.75;5096819;27;45514;-66
2023/01/26 01:40:29;;;;;;;;;66.75;46.25;;;;;5.61;62.05;101958.09;5096864;27;45489;-66
2023/01/26 01:42:55;;;;;;;;;60.75;45.50;;;;;5.61;62.15;101955.44;5096274;27;46011;-66
2023/01/26 01:45:27;;;;;;;;;55.00;41.75;;;;;5.66;61.76;101961.97;5093926;27;45543;-66
2023/01/26 01:47:58;;;;;;;;;61.50;45.75;;;;;5.63;62.09;101971.47;5096408;27;45499;-67
2023/01/26 01:50:26;;;;;;;;;56.50;41.50;;;;;5.57;62.50;101964.00;5096937;27;45562;-66
2023/01/26 01:52:54;;;;;;;;;61.25;47.25;;;;;5.59;62.06;101965.00;5074698;27;46170;-65
2023/01/26 01:55:20;;;;;;;;;54.25;41.75;;;;;5.59;62.28;101965.00;5077823;27;45421;-66
2023/01/26 01:57:54;;;;;;;;;59.00;42.00;;;;;5.59;62.31;101961.44;5076245;27;45642;-67
2023/01/26 02:00:22;;;;;;;;;55.75;43.25;;;;;5.61;63.23;101960.75;5090254;27;45290;-67
2023/01/26 02:06:19;;;;;;;;;54.00;39.75;;;;;5.54;63.19;101954.13;5079393;27;45880;-67
2023/01/26 02:08:49;;;;;;;;;57.00;46.00;;;;;5.53;63.35;101946.97;5092982;27;45384;-68
2023/01/26 02:11:26;;;;;;;;;54.00;41.75;;;;;5.57;63.43;101949.84;5096877;27;46221;-67
2023/01/26 02:13:51;;;;;;;;;65.00;43.75;;;;;5.60;63.31;101950.94;5095034;27;47147;-67
2023/01/26 02:16:18;;;;;;;;;54.25;40.50;;;;;5.58;64.01;101949.94;5094317;27;45578;-67
2023/01/26 02:18:44;;;;;;;;;57.00;40.50;;;;;5.62;63.59;101956.34;5077753;27;45405;-67
2023/01/26 02:21:21;;;;;;;;;56.25;42.75;;;;;5.65;63.59;101954.81;5094679;27;45433;-67
2023/01/26 02:24:05;;;;;;;;;57.00;43.50;;;;;5.65;63.82;101957.47;5093202;27;46500;-67
2023/01/26 02:26:35;;;;;;;;;51.50;39.00;;;;;5.56;64.01;101930.38;5093211;27;45575;-67
2023/01/26 02:29:03;;;;;;;;;58.50;42.25;;;;;5.64;63.52;101953.00;5088156;27;45477;-66
2023/01/26 02:31:29;;;;;;;;;59.25;46.00;;;;;5.65;63.52;101954.81;5095632;27;45580;-67
2023/01/26 02:33:55;;;;;;;;;55.25;45.00;;;;;5.62;64.04;101959.00;5095339;27;46396;-66
2023/01/26 02:36:25;;;;;;;;;56.50;43.50;;;;;5.65;63.87;101948.59;5094795;27;45456;-66
2023/01/26 02:39:14;;;;;;;;;62.00;45.75;;;;;5.71;64.21;101941.06;5095711;27;45598;-67
2023/01/26 02:44:25;;;;;;;;;62.75;45.00;;;;;5.67;63.78;101944.31;5095727;27;45576;-67
2023/01/26 02:46:52;;;;;;;;;57.50;40.00;;;;;5.61;64.41;101928.94;5095102;27;45462;-66
2023/01/26 02:52:27;;;;;;;;;56.50;41.50;;;;;5.55;64.44;101925.88;5031776;28;45632;-66
2023/01/26 02:57:38;;;;;;;;;56.00;40.00;;;;;5.51;64.37;101935.38;5069804;27;45543;-67
2023/01/26 03:00:07;;;;;;;;;58.75;43.75;;;;;5.42;64.38;101931.19;5093866;27;45499;-67
2023/01/26 03:02:32;;;;;;;;;61.00;42.25;;;;;5.45;64.89;101934.03;5094380;27;45657;-67
2023/01/26 03:04:57;;;;;;;;;57.25;41.50;;;;;5.39;64.94;101921.28;5092744;27;46550;-67
2023/01/26 03:07:23;;;;;;;;;60.00;42.25;;;;;5.49;65.31;101933.41;5075085;27;49147;-68
2023/01/26 03:09:48;;;;;;;;;57.50;37.25;;;;;5.37;65.64;101920.28;5092946;27;45509;-66
2023/01/26 03:12:14;;;;;;;;;55.75;39.25;;;;;5.48;65.66;101936.91;5095047;27;45535;-67
2023/01/26 03:14:40;;;;;;;;;62.00;46.25;;;;;5.40;65.32;101922.22;5092820;27;46449;-66
2023/01/26 03:17:05;;;;;;;;;57.75;42.75;;;;;5.41;64.84;101932.00;5094073;27;45531;-66
2023/01/26 03:27:46;;;;;;;;;47.25;35.00;;;;;5.25;65.29;101904.50;5093788;27;45499;-66
2023/01/26 03:30:14;;;;;;;;;55.00;40.50;;;;;5.32;65.49;101914.66;5094242;27;45381;-66
2023/01/26 03:32:40;;;;;;;;;54.50;43.00;;;;;5.26;65.50;101914.28;5074957;27;46152;-67
2023/01/26 03:35:06;;;;;;;;;62.25;43.00;;;;;5.22;65.85;101909.56;5092793;27;45986;-68
2023/01/26 03:37:35;;;;;;;;;51.25;37.00;;;;;5.22;65.95;101906.03;5091671;27;45479;-68
2023/01/26 03:56:31;;;;;;;;;50.50;37.00;;;;;5.26;65.71;101895.72;5091544;27;45523;-67
2023/01/26 03:59:07;;;;;;;;;37.25;26.50;;;;;5.16;65.80;101890.63;5074835;27;45808;-66
2023/01/26 04:01:34;;;;;;;;;46.00;39.25;;;;;5.16;65.74;101874.72;5092665;27;46199;-67
2023/01/26 04:09:30;;;;;;;;;56.00;39.00;;;;;5.17;66.52;101893.38;5092013;27;45425;-67
2023/01/26 04:11:55;;;;;;;;;54.25;39.50;;;;;5.21;65.57;101889.19;5093759;27;45421;-67
2023/01/26 04:22:42;;;;;;;;;56.75;42.00;;;;;5.30;65.60;101879.22;5094562;27;45578;-67
2023/01/26 04:25:12;;;;;;;;;59.75;40.00;;;;;5.31;65.42;101878.41;5094236;27;45538;-67
2023/01/26 04:27:39;;;;;;;;;60.00;40.75;;;;;5.32;65.48;101874.00;5094337;27;46458;-66
2023/01/26 04:30:05;;;;;;;;;54.50;37.75;;;;;5.31;65.83;101870.44;5093906;27;45386;-67
2023/01/26 04:32:30;;;;;;;;;50.75;38.50;;;;;5.38;65.28;101886.72;5087387;27;45251;-67
2023/01/26 04:34:55;;;;;;;;;59.50;42.25;;;;;5.40;65.59;101890.44;5087589;27;45383;-67
2023/01/26 04:37:21;;;;;;;;;56.50;39.50;;;;;5.34;65.34;101865.31;5081734;27;47936;-67
2023/01/26 04:39:46;;;;;;;;;46.50;37.50;;;;;5.44;65.81;101884.50;5100834;27;45377;-66
2023/01/26 04:42:12;;;;;;;;;61.75;41.25;;;;;5.40;65.70;101877.16;5100705;27;45881;-68
2023/01/26 04:44:37;;;;;;;;;43.00;36.50;;;;;5.43;65.42;101885.28;5101115;27;45424;-67
2023/01/26 04:47:02;;;;;;;;;59.75;44.00;;;;;5.35;65.81;101866.25;5079532;27;46555;-66
2023/01/26 04:49:28;;;;;;;;;57.25;39.00;;;;;5.40;66.32;101893.97;5081823;27;45412;-66
2023/01/26 04:51:53;;;;;;;;;52.25;35.00;;;;;5.42;66.74;101895.00;5100680;27;45894;-67
2023/01/26 04:54:18;;;;;;;;;50.50;39.75;;;;;5.45;66.67;101892.53;5101113;27;45395;-66
2023/01/26 04:56:44;;;;;;;;;47.25;39.25;;;;;5.44;66.46;101884.50;5100168;27;45420;-66
2023/01/26 04:59:10;;;;;;;;;47.75;37.25;;;;;5.49;66.15;101893.66;5100294;27;45516;-65
2023/01/26 05:01:36;;;;;;;;;50.50;37.75;;;;;5.44;65.86;101879.19;5100040;27;45666;-66
2023/01/26 05:04:03;;;;;;;;;50.50;38.25;;;;;5.41;66.74;101881.63;5100464;27;45449;-66
2023/01/26 05:06:29;;;;;;;;;54.00;39.75;;;;;5.47;67.11;101882.94;5100211;27;47512;-66
2023/01/26 05:08:54;;;;;;;;;55.25;41.25;;;;;5.51;66.80;101884.06;5099803;27;45502;-66
2023/01/26 05:11:20;;;;;;;;;51.75;38.25;;;;;5.52;66.40;101875.31;5100030;27;45364;-65
2023/01/26 05:13:46;;;;;;;;;39.75;35.75;;;;;5.58;66.61;101875.72;5100710;27;46356;-66
2023/01/26 05:16:13;;;;;;;;;48.50;37.00;;;;;5.56;66.62;101887.97;5100137;27;45523;-65
2023/01/26 05:18:41;;;;;;;;;49.00;37.50;;;;;5.57;66.66;101881.81;5098224;27;45430;-66
2023/01/26 05:21:08;;;;;;;;;59.50;40.25;;;;;5.58;66.55;101881.00;5100468;27;45476;-66
2023/01/26 05:23:34;;;;;;;;;45.00;37.25;;;;;5.42;65.79;101854.34;5100817;27;45446;-66
2023/01/26 05:26:00;;;;;;;;;57.75;38.75;;;;;5.54;66.53;101887.84;5100102;27;45800;-66
2023/01/26 05:28:25;;;;;;;;;61.75;43.75;;;;;5.51;65.93;101885.00;5100020;27;45458;-66
2023/01/26 05:30:51;;;;;;;;;57.25;37.75;;;;;5.42;66.30;101875.53;5097305;27;45375;-66
2023/01/26 05:33:20;;;;;;;;;58.25;40.00;;;;;5.44;66.96;101884.50;5081844;27;45602;-66
2023/01/26 05:35:47;;;;;;;;;51.75;40.25;;;;;5.41;66.94;101890.53;5105391;27;47184;-66
2023/01/26 05:38:12;;;;;;;;;49.75;40.00;;;;;5.36;66.61;101886.63;5101270;27;45657;-65
2023/01/26 05:40:38;;;;;;;;;56.75;39.25;;;;;5.20;67.02;101860.88;5100745;27;45638;-66
2023/01/26 05:43:03;;;;;;;;;50.25;39.00;;;;;5.39;67.62;101892.13;5100327;27;45579;-66
2023/01/26 05:45:29;;;;;;;;;58.75;41.25;;;;;5.42;67.23;101889.69;5093240;27;46804;-66
2023/01/26 05:47:54;;;;;;;;;44.25;38.25;;;;;5.39;66.40;101883.28;5095596;27;45441;-66
2023/01/26 05:50:19;;;;;;;;;51.50;39.00;;;;;5.43;66.66;101880.94;5096745;27;45455;-67
2023/01/26 05:52:45;;;;;;;;;48.75;39.25;;;;;5.40;66.73;101880.72;5098147;27;45517;-66
2023/01/26 05:55:11;;;;;;;;;55.00;37.25;;;;;5.46;66.47;101881.13;5096659;27;45718;-65
2023/01/26 05:57:37;;;;;;;;;60.00;42.50;;;;;5.52;67.51;101889.47;5097304;27;45552;-66
2023/01/26 06:00:04;;;;;;;;;54.50;39.75;;;;;5.54;66.45;101882.56;5084294;27;45353;-67
2023/01/26 06:02:29;;;;;;;;;51.75;37.25;;;;;5.57;66.35;101887.13;5102372;27;45435;-66
2023/01/26 06:04:55;;;;;;;;;48.25;37.75;;;;;5.49;66.21;101864.50;5082192;27;47223;-66
2023/01/26 06:07:20;;;;;;;;;59.50;41.25;;;;;5.60;66.06;101886.41;5096135;27;45422;-66
2023/01/26 06:09:46;;;;;;;;;53.75;36.50;;;;;5.60;66.81;101887.31;5096104;27;45374;-66
2023/01/26 06:12:17;;;;;;;;;60.25;42.50;;;;;5.49;66.90;101864.50;5096506;27;45455;-66
2023/01/26 06:14:42;;;;;;;;;45.00;37.00;;;;;5.68;67.39;101893.13;5095739;27;46396;-67
2023/01/26 06:17:08;;;;;;;;;49.25;38.00;;;;;5.72;66.41;101893.44;5096409;27;45532;-66
2023/01/26 06:19:34;;;;;;;;;54.50;41.50;;;;;5.74;66.69;101888.19;5103927;27;45462;-67
2023/01/26 06:22:00;;;;;;;;;61.50;42.50;;;;;5.67;66.97;101892.19;5102465;27;45495;-66
2023/01/26 06:24:25;;;;;;;;;43.00;38.25;;;;;5.70;67.53;101892.41;5094795;27;45911;-67
2023/01/26 06:26:51;;;;;;;;;52.25;39.00;;;;;5.75;66.78;101887.41;5095637;27;45517;-66
2023/01/26 06:29:16;;;;;;;;;53.75;39.75;;;;;5.80;67.61;101885.94;5090090;27;45548;-65
2023/01/26 06:31:42;;;;;;;;;58.25;39.00;;;;;5.75;66.60;101871.47;5095059;27;45614;-65
2023/01/26 06:34:07;;;;;;;;;61.00;45.50;;;;;5.80;66.56;101891.25;5100481;27;45812;-67
2023/01/26 06:36:33;;;;;;;;;58.00;40.25;;;;;5.69;67.32;101889.66;5075446;27;45516;-66
2023/01/26 06:38:58;;;;;;;;;54.75;39.25;;;;;5.78;67.45;101889.34;5077225;27;45680;-64
2023/01/26 06:41:24;;;;;;;;;43.25;36.75;;;;;5.72;67.31;101881.88;5095656;27;45463;-64
2023/01/26 06:43:49;;;;;;;;;56.50;42.00;;;;;5.82;67.06;101899.31;5095547;27;45547;-67
2023/01/26 06:46:16;;;;;;;;;47.75;38.25;;;;;5.85;67.24;101886.25;5080877;27;45454;-66
2023/01/26 06:48:41;;;;;;;;;50.00;38.25;;;;;5.90;66.77;101898.97;5086336;27;45559;-66
2023/01/26 06:51:19;;;;;;;;;72.00;42.00;;;;;5.92;67.12;101899.06;5093952;27;45922;-65
2023/01/26 06:53:55;;;;;;;;;58.75;46.50;;;;;5.97;66.38;101905.63;5095217;27;46378;-65
2023/01/26 06:56:22;;;;;;;;;59.75;40.25;;;;;5.88;66.78;101889.09;5091628;27;45396;-66
2023/01/26 06:58:48;;;;;;;;;53.00;38.50;;;;;5.96;66.14;101906.44;5095688;27;45534;-64
2023/01/26 07:01:24;;;;;;;;;52.50;37.75;;;;;5.90;66.48;101906.03;5101491;27;45511;-65
2023/01/26 07:03:54;;;;;;;;;55.00;41.25;;;;;5.84;66.95;101901.25;5097774;27;45871;-65
2023/01/26 07:06:20;;;;;;;;;56.50;38.75;;;;;5.80;65.94;101901.84;5100234;27;45502;-65
2023/01/26 07:08:45;;;;;;;;;52.25;40.00;;;;;5.76;67.10;101898.91;5076250;27;45475;-66
2023/01/26 07:11:11;;;;;;;;;48.75;40.50;;;;;5.80;66.79;101901.84;5093379;27;45457;-65
2023/01/26 07:13:37;;;;;;;;;55.50;41.75;;;;;5.79;66.40;101901.75;5087304;27;46376;-66
2023/01/26 07:16:09;;;;;;;;;58.50;47.00;;;;;5.80;66.73;101903.59;5093409;27;45354;-68
2023/01/26 07:18:36;;;;;;;;;54.00;42.50;;;;;5.84;66.26;101900.31;5090368;27;45401;-67
2023/01/26 07:21:06;;;;;;;;;63.25;46.25;;;;;5.79;66.56;101904.41;5105053;27;45214;-68
2023/01/26 07:23:32;;;;;;;;;53.50;41.25;;;;;5.71;66.66;101898.63;5087284;27;45761;-66
2023/01/26 07:25:58;;;;;;;;;61.25;42.25;;;;;5.70;66.69;101910.94;5093109;27;47030;-68
2023/01/26 07:28:24;;;;;;;;;54.00;42.25;;;;;5.61;66.89;101896.19;5088013;27;45415;-66
2023/01/26 07:30:50;;;;;;;;;55.25;42.50;;;;;5.75;66.56;101916.56;5095279;27;45473;-68
2023/01/26 07:33:16;;;;;;;;;60.00;44.25;;;;;5.82;66.64;101912.56;5095004;27;45299;-67
2023/01/26 07:35:41;;;;;;;;;63.50;44.00;;;;;5.80;66.25;101908.91;5092364;27;45439;-68
2023/01/26 07:38:07;;;;;;;;;57.75;37.25;;;;;5.82;66.71;101912.56;5092406;27;45436;-65
2023/01/26 07:40:33;;;;;;;;;61.25;42.75;;;;;5.84;66.11;101909.22;5095399;27;45461;-66
2023/01/26 07:42:59;;;;;;;;;67.00;43.75;;;;;5.90;65.58;101909.56;5084113;27;46257;-67
2023/01/26 07:45:25;;;;;;;;;64.50;43.25;;;;;5.91;66.09;101915.81;5072333;27;45643;-66
2023/01/26 07:47:53;;;;;;;;;52.50;39.00;;;;;5.91;66.26;101913.16;5094562;27;45344;-67
2023/01/26 07:50:20;;;;;;;;;55.75;41.50;;;;;5.94;66.05;101918.69;5093522;27;45459;-67
2023/01/26 07:52:46;;;;;;;;;53.25;41.25;;;;;5.94;65.63;101917.75;5091499;27;46434;-67
2023/01/26 07:55:12;;;;;;;;;59.00;44.00;;;;;6.00;66.17;101915.53;5092991;27;45493;-67
2023/01/26 07:57:37;;;;;;;;;61.75;42.75;;;;;5.96;65.07;101925.03;5094518;27;45312;-66
2023/01/26 08:00:03;;;;;;;;;51.75;40.50;;;;;5.93;66.09;101918.56;5095203;27;45589;-66
2023/01/26 08:02:28;;;;;;;;;60.75;43.50;;;;;5.98;65.84;101919.81;5068633;27;46195;-66
2023/01/26 08:04:54;;;;;;;;;60.25;43.00;;;;;6.01;65.57;101922.66;5093142;27;45523;-66
2023/01/26 08:07:19;;;;;;;;;51.25;38.75;;;;;6.01;65.93;101923.56;5092556;27;45428;-67
2023/01/26 08:09:44;;;;;;;;;53.50;39.75;;;;;6.06;65.63;101926.53;5075616;27;45389;-68
2023/01/26 08:12:10;;;;;;;;;53.75;38.00;;;;;6.08;65.21;101935.50;5089493;27;45322;-67
2023/01/26 08:14:35;;;;;;;;;52.00;38.25;;;;;6.08;65.51;101936.41;5092966;27;45378;-67
2023/01/26 08:17:01;;;;;;;;;47.00;36.50;;;;;6.12;65.76;101933.94;5092471;27;45544;-65
2023/01/26 08:19:26;;;;;;;;;52.00;32.00;;;;;6.18;65.26;101939.66;5094492;27;45642;-67
2023/01/26 08:21:53;;;;;;;;;56.00;37.50;;;;;6.13;64.64;101941.09;5101250;27;45335;-65
2023/01/26 08:24:18;;;;;;;;;48.50;38.25;;;;;6.12;65.03;101937.53;5109352;27;45015;-66
2023/01/26 08:26:44;;;;;;;;;48.25;38.75;;;;;6.15;65.19;101943.00;5111264;27;45282;-66
2023/01/26 08:29:09;;;;;;;;;36.50;32.50;;;;;6.19;65.14;101953.03;5105598;27;45587;-66
2023/01/26 08:31:34;;;;;;;;;43.00;30.00;;;;;6.16;64.62;101959.88;5085209;27;45980;-67
2023/01/26 08:34:00;;;;;;;;;51.50;37.25;;;;;6.18;64.75;101968.84;5096001;27;45433;-67
2023/01/26 08:36:27;;;;;;;;;43.25;35.00;;;;;5.98;64.51;101922.47;5095640;27;45223;-65
2023/01/26 08:38:52;;;;;;;;;46.50;37.75;;;;;6.23;64.13;101959.44;5075411;27;45606;-64
2023/01/26 08:41:18;;;;;;;;;44.50;37.00;;;;;6.21;64.30;101955.78;5093491;27;45658;-62
2023/01/26 08:43:44;;;;;;;;;51.00;42.00;;;;;6.28;64.33;101969.50;5087036;27;45457;-64
2023/01/26 08:46:09;;;;;;;;;60.25;45.50;;;;;6.25;64.43;101969.34;5093078;27;45467;-65
2023/01/26 08:48:36;;;;;;;;;59.00;42.25;;;;;6.26;63.84;101972.91;5091463;27;45679;-63
2023/01/26 08:51:02;;;;;;;;;54.75;38.25;;;;;6.26;64.13;101965.84;5092485;27;46249;-66
2023/01/26 08:53:33;;;;;;;;;53.75;35.75;;;;;6.25;64.08;101969.34;5093525;27;45332;-66
2023/01/26 08:56:04;;;;;;;;;61.75;45.00;;;;;6.20;64.03;101961.88;5089393;27;45727;-66
2023/01/26 08:58:30;;;;;;;;;53.25;43.50;;;;;6.15;64.26;101960.69;5102216;27;45614;-64
2023/01/26 09:00:55;;;;;;;;;67.25;47.00;;;;;6.25;64.54;101973.69;5102366;27;46507;-67
2023/01/26 09:03:21;;;;;;;;;56.00;43.50;;;;;6.17;64.18;101962.63;5071642;27;45570;-67
2023/01/26 09:05:46;;;;;;;;;65.50;48.00;;;;;6.23;64.24;101976.25;5093100;27;45553;-65
2023/01/26 09:08:11;;;;;;;;;51.75;42.00;;;;;6.29;64.11;101975.75;5091291;27;45501;-66
2023/01/26 09:10:38;;;;;;;;;54.75;43.00;;;;;6.24;63.90;101972.81;5090504;27;46323;-65
2023/01/26 09:13:03;;;;;;;;;58.75;42.00;;;;;6.31;64.27;101984.72;5090695;27;45657;-64
2023/01/26 09:15:28;;;;;;;;;50.75;38.00;;;;;6.32;63.96;101983.91;5092029;27;45540;-66
2023/01/26 09:17:54;;;;;;;;;55.50;41.00;;;;;6.35;64.08;101984.13;5093758;27;45329;-65
2023/01/26 09:20:19;;;;;;;;;57.75;40.50;;;;;6.38;64.46;101992.25;5090959;27;45553;-67
2023/01/26 09:22:46;;;;;;;;;54.50;42.00;;;;;6.37;64.10;101984.19;5091626;27;45567;-67
2023/01/26 09:25:11;;;;;;;;;42.00;33.25;;;;;6.36;63.96;101982.38;5071875;27;45371;-65
2023/01/26 09:27:37;;;;;;;;;48.50;32.75;;;;;6.43;63.35;101996.13;5094751;27;45462;-69
2023/01/26 09:30:05;;;;;;;;;40.50;33.75;;;;;6.43;63.80;101990.81;5077508;27;48431;-66
2023/01/26 09:32:30;;;;;;;;;57.75;36.75;;;;;6.52;63.78;101994.88;5096094;27;45483;-68
2023/01/26 09:34:56;;;;;;;;;54.75;34.00;;;;;6.47;62.73;101981.31;5094908;27;45388;-66
2023/01/26 09:37:22;;;;;;;;;46.50;38.00;;;;;6.54;63.37;102003.84;5095578;27;45520;-65
2023/01/26 09:39:47;;;;;;;;;46.50;36.50;;;;;6.47;63.80;101994.59;5099553;27;46340;-68
2023/01/26 09:42:58;;;;;;;;;54.00;39.75;;;;;6.55;63.33;102011.91;5103874;27;45620;-66
2023/01/26 09:45:30;;;;;;;;;57.00;37.75;;;;;6.49;63.18;102010.59;5088145;27;47111;-64
2023/01/26 09:48:18;;;;;;;;;53.75;34.25;;;;;6.44;63.61;102010.31;5093239;27;45852;-64
2023/01/26 09:50:59;;;;;;;;;60.75;45.75;;;;;6.45;63.89;102010.41;5095479;27;46450;-67
2023/01/26 09:53:43;;;;;;;;;51.50;38.50;;;;;6.43;64.03;102009.41;5093548;27;45623;-67
2023/01/26 09:56:18;;;;;;;;;53.75;38.75;;;;;6.43;63.43;102005.81;5075645;27;45576;-65
2023/01/26 09:58:50;;;;;;;;;56.00;40.50;;;;;6.37;63.68;102001.03;5094312;27;45515;-66
2023/01/26 10:01:35;;;;;;;;;50.75;40.00;;;;;6.34;63.79;102003.50;5093780;27;46138;-65
2023/01/26 10:04:37;;;;;;;;;53.00;40.25;;;;;6.40;63.99;102013.56;5093528;27;45263;-63
2023/01/26 10:07:09;;;;;;;;;64.25;46.75;;;;;6.43;64.48;102017.38;5094480;27;45346;-65
2023/01/26 10:09:36;;;;;;;;;55.00;40.00;;;;;6.47;64.29;102015.81;5095266;27;45465;-65
2023/01/26 10:12:30;;;;;;;;;46.50;34.75;;;;;6.48;64.07;102017.63;5091627;27;45441;-67
2023/01/26 10:15:10;;;;;;;;;47.75;38.00;;;;;6.48;64.10;102017.63;5077574;27;45518;-66
2023/01/26 10:17:41;;;;;;;;;53.75;36.50;;;;;6.52;63.77;102018.78;5095118;27;45484;-65
2023/01/26 10:20:07;;;;;;;;;43.75;35.25;;;;;6.56;63.64;102021.69;5106347;27;45149;-66
2023/01/26 10:22:36;;;;;;;;;49.50;34.50;;;;;6.61;63.68;102019.34;5090764;27;45543;-65
2023/01/26 10:25:13;;;;;;;;;59.00;45.00;;;;;6.66;64.75;102022.28;5090453;27;45528;-64
2023/01/26 10:27:38;;;;;;;;;54.50;37.50;;;;;6.69;63.83;102018.06;5095192;27;45364;-63
2023/01/26 10:32:34;;;;;;;;;47.50;35.00;;;;;6.45;63.14;101978.56;5058498;28;46064;-69
2023/01/26 10:35:02;;;;;;;;;46.75;27.75;;;;;6.49;63.75;101994.69;5058195;28;45494;-69
2023/01/26 10:37:29;;;;;;;;;60.75;42.50;;;;;6.67;64.10;102016.16;5052798;28;45372;-68
2023/01/26 10:40:08;;;;;;;;;53.00;37.75;;;;;6.67;64.34;102011.75;5055094;28;45418;-68
2023/01/26 10:42:35;;;;;;;;;42.25;32.25;;;;;6.79;64.48;102015.16;5058167;28;45384;-69
2023/01/26 10:45:22;;;;;;;;;58.75;41.75;;;;;6.81;64.00;102016.19;5058814;28;45469;-69
2023/01/26 10:48:12;;;;;;;;;42.25;36.75;;;;;6.88;63.71;102008.59;5054911;28;45431;-70
2023/01/26 10:50:37;;;;;;;;;45.75;34.25;;;;;6.74;64.16;101983.84;5055622;28;45507;-70
2023/01/26 10:53:04;;;;;;;;;48.75;38.00;;;;;6.79;64.16;101988.59;5053645;28;45689;-70
2023/01/26 10:55:33;;;;;;;;;66.25;47.75;;;;;6.92;64.25;102008.88;5060815;28;45912;-70
2023/01/26 10:58:00;;;;;;;;;46.75;37.25;;;;;6.85;64.02;101985.41;5053346;28;45430;-69
2023/01/26 11:00:30;;;;;;;;;54.00;41.25;;;;;6.92;63.36;101995.59;5057586;28;45275;-70
2023/01/26 11:03:17;;;;;;;;;64.00;45.25;;;;;6.80;64.08;101958.56;5058342;28;46265;-70
2023/01/26 11:05:46;;;;;;;;;55.25;43.00;;;;;6.96;63.99;101976.38;5034592;28;45917;-69
2023/01/26 11:08:36;;;;;;;;;58.50;41.50;;;;;7.10;64.42;101989.56;5051874;28;45625;-69
2023/01/26 11:11:05;;;;;;;;;55.50;42.50;;;;;7.19;64.15;101995.41;5060047;28;45427;-69
2023/01/26 11:13:31;;;;;;;;;41.25;37.25;;;;;7.23;63.14;101984.16;5053274;28;45764;-71
2023/01/26 11:16:13;;;;;;;;;52.25;36.50;;;;;7.25;63.79;101968.31;5044324;28;45436;-69
2023/01/26 11:18:57;;;;;;;;;61.00;47.25;;;;;7.32;63.10;101960.78;5056578;28;45393;-70
2023/01/26 11:21:30;;;;;;;;;52.00;41.75;;;;;7.43;62.71;101974.72;5060283;28;45467;-70
2023/01/26 11:24:33;;;;;;;;;46.00;38.75;;;;;7.43;62.67;101966.72;5065065;28;45530;-71
2023/01/26 11:27:15;;;;;;;;;76.25;53.25;;;;;7.44;63.39;101957.00;5020056;28;45576;-65
2023/01/26 11:30:17;;;;;;;;;65.25;46.25;;;;;7.53;62.30;101968.19;5064272;28;45459;-69
2023/01/26 11:32:59;;;;;;;;;53.00;39.50;;;;;7.51;62.69;101964.53;5058526;28;45249;-67
2023/01/26 11:35:51;;;;;;;;;84.75;69.25;;;;;7.60;63.08;101977.44;5063112;28;45643;-70
2023/01/26 11:38:39;;;;;;;;;53.75;39.75;;;;;7.65;62.29;101962.66;5046446;28;45414;-70
2023/01/26 11:41:25;;;;;;;;;40.50;32.25;;;;;7.66;61.29;101960.09;5062390;28;45633;-71
2023/01/26 11:44:23;;;;;;;;;33.25;24.75;;;;;7.63;61.49;101966.97;5055299;28;45390;-70
2023/01/26 11:47:06;;;;;;;;;46.00;35.50;;;;;7.68;62.60;101958.44;5061830;28;46439;-72
2023/01/26 11:49:44;;;;;;;;;45.75;35.75;;;;;7.69;61.65;101962.03;5052345;28;45685;-70
2023/01/26 11:52:31;;;;;;;;;43.75;35.25;;;;;7.69;62.01;101960.28;5054001;28;45315;-69
2023/01/26 11:55:41;;;;;;;;;46.25;35.50;;;;;7.71;62.77;101958.59;5049943;28;45493;-69
2023/01/26 11:58:31;;;;;;;;;46.50;38.00;;;;;7.71;63.09;101958.59;5037376;28;46291;-69
2023/01/26 12:01:04;;;;;;;;;37.50;36.25;;;;;7.80;63.13;101959.97;5055098;28;45484;-70
2023/01/26 12:03:46;;;;;;;;;55.50;43.75;;;;;7.80;62.54;101958.22;5053300;28;45525;-70
2023/01/26 12:06:28;;;;;;;;;43.50;34.00;;;;;7.77;63.17;101968.69;5065002;28;45301;-69
2023/01/26 12:09:01;;;;;;;;;35.25;26.50;;;;;7.72;63.15;101964.84;5054877;28;46512;-70
2023/01/26 12:11:50;;;;;;;;;35.00;31.00;;;;;7.49;63.00;101929.88;5059413;28;45460;-69
2023/01/26 12:14:25;;;;;;;;;57.50;42.25;;;;;7.61;64.12;101950.94;5057838;28;45362;-70
2023/01/26 12:17:30;;;;;;;;;38.00;31.25;;;;;7.64;64.15;101947.50;5040493;28;45759;-72
2023/01/26 12:20:04;;;;;;;;;43.75;33.00;;;;;7.54;63.88;101928.38;5010130;28;47280;-66
2023/01/26 12:22:37;;;;;;;;;41.00;30.75;;;;;7.52;64.31;101930.06;5050211;28;45652;-68